createdAt,value
2019-03-16T00:00:16.751Z,2.90
2019-03-16T00:02:48.109Z,1.63
2019-03-16T00:05:17.966Z,2.33
2019-03-16T00:07:47.743Z,2.40
2019-03-16T00:10:17.485Z,2.13
2019-03-16T00:12:47.301Z,1.60
2019-03-16T00:15:17.218Z,1.77
2019-03-16T00:17:46.945Z,1.97
2019-03-16T00:20:16.695Z,1.73
2019-03-16T00:22:46.484Z,1.77
2019-03-16T00:25:16.224Z,1.37
2019-03-16T00:27:46.100Z,1.43
2019-03-16T00:30:15.918Z,1.60
2019-03-16T00:32:45.681Z,1.87
2019-03-16T00:35:15.401Z,1.77
2019-03-16T00:37:45.210Z,1.50
2019-03-16T00:40:14.949Z,1.63
2019-03-16T00:42:44.986Z,2.00
2019-03-16T00:45:14.734Z,2.20
2019-03-16T00:47:44.498Z,1.60
2019-03-16T00:50:15.063Z,2.20
2019-03-16T00:52:44.848Z,1.20
2019-03-16T00:55:14.595Z,2.07
2019-03-16T00:57:44.368Z,1.93
2019-03-16T01:00:16.402Z,2.03
2019-03-16T01:02:46.128Z,2.43
2019-03-16T01:05:15.910Z,1.60
2019-03-16T01:07:45.648Z,2.40
2019-03-16T01:10:15.459Z,1.67
2019-03-16T01:12:45.165Z,2.13
2019-03-16T01:15:14.946Z,2.00
2019-03-16T01:17:44.706Z,2.03
2019-03-16T01:20:14.570Z,1.27
2019-03-16T01:22:44.323Z,1.73
2019-03-16T01:25:14.106Z,1.03
2019-03-16T01:27:43.868Z,1.43
2019-03-16T01:30:16.949Z,1.33
2019-03-16T01:32:47.734Z,1.53
2019-03-16T01:35:19.977Z,1.47
2019-03-16T01:37:49.737Z,1.70
2019-03-16T01:40:19.516Z,2.70
2019-03-16T01:42:49.272Z,1.30
2019-03-16T01:45:19.028Z,1.80
2019-03-16T01:47:48.788Z,2.00
2019-03-16T01:50:21.515Z,1.23
2019-03-16T01:52:50.031Z,1.20
2019-03-16T01:55:23.070Z,1.80
2019-03-16T01:57:52.857Z,2.00
2019-03-16T02:00:23.225Z,1.50
2019-03-16T02:02:55.739Z,1.60
2019-03-16T02:05:24.633Z,1.47
2019-03-16T02:07:54.419Z,1.57
2019-03-16T02:10:24.188Z,1.30
2019-03-16T02:12:54.299Z,1.00
2019-03-16T02:15:24.065Z,1.43
2019-03-16T02:17:53.810Z,1.50
2019-03-16T02:20:23.606Z,1.70
2019-03-16T02:22:53.352Z,1.27
2019-03-16T02:25:23.111Z,1.50
2019-03-16T02:27:52.854Z,1.20
2019-03-16T02:30:23.663Z,1.30
2019-03-16T02:33:11.668Z,1.57
2019-03-16T02:35:27.194Z,1.20
2019-03-16T02:37:56.959Z,1.60
2019-03-16T02:40:26.796Z,0.90
2019-03-16T02:42:56.566Z,0.70
2019-03-16T02:45:26.324Z,1.20
2019-03-16T02:47:56.106Z,1.27
2019-03-16T02:50:25.826Z,1.53
2019-03-16T02:52:55.609Z,1.30
2019-03-16T02:55:25.325Z,2.10
2019-03-16T02:57:55.078Z,1.63
2019-03-16T03:00:24.873Z,1.20
2019-03-16T03:02:55.233Z,1.53
2019-03-16T03:05:24.987Z,1.80
2019-03-16T03:07:54.788Z,0.93
2019-03-16T03:10:24.553Z,1.60
2019-03-16T03:12:54.289Z,1.40
2019-03-16T03:15:24.096Z,1.10
2019-03-16T03:17:53.862Z,1.00
2019-03-16T03:20:23.623Z,1.30
2019-03-16T03:22:53.976Z,1.13
2019-03-16T03:25:26.762Z,1.70
2019-03-16T03:27:56.512Z,1.33
2019-03-16T03:30:26.296Z,1.30
2019-03-16T03:32:56.062Z,1.20
2019-03-16T03:35:29.310Z,1.27
2019-03-16T03:37:57.273Z,1.40
2019-03-16T03:40:26.991Z,1.37
2019-03-16T03:42:57.425Z,1.80
2019-03-16T03:45:27.140Z,1.80
2019-03-16T03:47:56.936Z,1.67
2019-03-16T03:50:26.960Z,1.57
2019-03-16T03:52:56.744Z,1.20
2019-03-16T03:55:26.468Z,1.33
2019-03-16T03:57:56.248Z,1.33
2019-03-16T04:00:25.989Z,1.10
2019-03-16T04:02:55.746Z,1.43
2019-03-16T04:05:26.524Z,2.00
2019-03-16T04:07:56.420Z,1.20
2019-03-16T04:10:26.210Z,1.83
2019-03-16T04:12:56.078Z,2.40
2019-03-16T04:15:25.848Z,1.63
2019-03-16T04:17:55.565Z,1.80
2019-03-16T04:20:25.357Z,1.53
2019-03-16T04:22:55.078Z,0.73
2019-03-16T04:25:24.835Z,1.87
2019-03-16T04:27:54.730Z,1.50
2019-03-16T04:30:24.446Z,1.83
2019-03-16T04:32:54.230Z,1.50
2019-03-16T04:35:23.956Z,2.37
2019-03-16T04:37:53.843Z,1.73
2019-03-16T04:40:23.679Z,2.00
2019-03-16T04:42:53.461Z,2.30
2019-03-16T04:45:23.240Z,1.80
2019-03-16T04:47:53.017Z,1.80
2019-03-16T04:50:22.777Z,2.20
2019-03-16T04:52:52.500Z,1.10
2019-03-16T04:55:22.291Z,1.30
2019-03-16T04:57:52.023Z,1.53
2019-03-16T05:00:21.785Z,1.37
2019-03-16T05:02:51.954Z,2.20
2019-03-16T05:05:21.687Z,2.23
2019-03-16T05:07:52.504Z,1.77
2019-03-16T05:10:24.272Z,2.13
2019-03-16T05:12:54.158Z,1.50
2019-03-16T05:15:23.910Z,1.90
2019-03-16T05:17:53.996Z,1.60
2019-03-16T05:20:23.764Z,2.27
2019-03-16T05:22:55.448Z,1.80
2019-03-16T05:25:25.046Z,1.97
2019-03-16T05:27:54.767Z,1.80
2019-03-16T05:30:24.521Z,1.73
2019-03-16T05:32:54.280Z,1.60
2019-03-16T05:35:24.095Z,1.33
2019-03-16T05:37:53.967Z,1.60
2019-03-16T05:40:23.797Z,1.57
2019-03-16T05:42:53.548Z,2.40
2019-03-16T05:45:24.034Z,1.80
2019-03-16T05:47:53.800Z,1.50
2019-03-16T05:50:23.570Z,1.53
2019-03-16T05:52:53.331Z,1.60
2019-03-16T05:55:23.305Z,1.40
2019-03-16T05:57:53.293Z,1.67
2019-03-16T06:00:23.103Z,1.00
2019-03-16T06:02:52.904Z,2.07
2019-03-16T06:05:22.781Z,1.57
2019-03-16T06:07:55.117Z,1.50
2019-03-16T06:10:25.089Z,1.93
2019-03-16T06:12:55.051Z,1.83
2019-03-16T06:15:24.846Z,1.90
2019-03-16T06:17:56.542Z,1.70
2019-03-16T06:20:26.411Z,1.30
2019-03-16T06:22:56.232Z,1.17
2019-03-16T06:25:26.004Z,1.37
2019-03-16T06:27:55.770Z,1.40
2019-03-16T06:30:25.660Z,1.80
2019-03-16T06:32:56.673Z,1.63
2019-03-16T06:35:29.303Z,1.23
2019-03-16T06:37:57.895Z,1.60
2019-03-16T06:40:27.666Z,1.57
2019-03-16T06:42:57.418Z,0.60
2019-03-16T06:45:27.214Z,1.17
2019-03-16T06:47:56.977Z,1.07
2019-03-16T06:50:26.735Z,2.93
2019-03-16T06:52:56.492Z,1.70
2019-03-16T06:55:26.275Z,1.73
2019-03-16T06:57:56.027Z,2.10
2019-03-16T07:00:25.792Z,2.00
2019-03-16T07:02:55.542Z,1.33
2019-03-16T07:05:37.497Z,1.40
2019-03-16T07:07:56.891Z,1.63
2019-03-16T07:10:26.655Z,0.97
2019-03-16T07:12:56.442Z,1.40
2019-03-16T07:15:26.193Z,1.87
2019-03-16T07:17:56.001Z,2.50
2019-03-16T07:20:25.821Z,4.17
2019-03-16T07:22:55.606Z,3.70
2019-03-16T07:25:25.374Z,1.80
2019-03-16T07:27:57.869Z,2.67
2019-03-16T07:30:27.667Z,3.73
2019-03-16T07:32:57.404Z,1.97
2019-03-16T07:35:27.181Z,2.00
2019-03-16T07:37:56.905Z,1.90
2019-03-16T07:40:26.889Z,1.90
2019-03-16T07:42:58.907Z,1.93
2019-03-16T07:45:28.701Z,2.53
2019-03-16T07:48:00.123Z,1.30
2019-03-16T07:50:29.919Z,1.63
2019-03-16T07:53:01.255Z,2.10
2019-03-16T07:55:32.740Z,1.97
2019-03-16T07:58:02.496Z,1.90
2019-03-16T08:00:32.284Z,3.07
2019-03-16T08:03:02.030Z,3.97
2019-03-16T08:05:31.786Z,2.50
2019-03-16T08:08:01.557Z,1.70
2019-03-16T08:10:31.288Z,4.27
2019-03-16T08:13:01.092Z,2.27
2019-03-16T08:15:30.841Z,2.30
2019-03-16T08:18:00.642Z,3.00
2019-03-16T08:20:31.585Z,1.43
2019-03-16T08:23:01.667Z,1.30
2019-03-16T08:25:31.429Z,1.73
2019-03-16T08:28:01.303Z,9.10
2019-03-16T08:30:31.071Z,3.13
2019-03-16T08:33:00.840Z,3.67
2019-03-16T08:35:30.706Z,2.40
2019-03-16T08:38:00.426Z,0.93
2019-03-16T08:40:30.298Z,3.13
2019-03-16T08:43:00.039Z,1.53
2019-03-16T08:45:29.890Z,3.13
2019-03-16T08:48:02.433Z,5.20
2019-03-16T08:50:31.150Z,10.27
2019-03-16T08:53:00.921Z,4.60
2019-03-16T08:55:30.713Z,5.03
2019-03-16T08:58:06.170Z,2.50
2019-03-16T09:00:32.060Z,2.87
2019-03-16T09:03:01.826Z,5.93
2019-03-16T09:05:31.603Z,4.50
2019-03-16T09:08:01.402Z,1.97
2019-03-16T09:10:31.141Z,2.73
2019-03-16T09:13:01.001Z,3.53
2019-03-16T09:15:30.845Z,20.67
2019-03-16T09:18:00.612Z,6.87
2019-03-16T09:20:34.032Z,3.70
2019-03-16T09:23:07.250Z,8.63
2019-03-16T09:25:41.038Z,1.60
2019-03-16T09:28:18.515Z,5.73
2019-03-16T09:30:42.345Z,2.07
2019-03-16T09:33:15.668Z,4.00
2019-03-16T09:36:01.380Z,5.10
2019-03-16T09:41:38.351Z,4.47
2019-03-16T09:44:09.777Z,17.90
2019-03-16T09:46:41.296Z,6.43
2019-03-16T09:49:11.182Z,12.57
2019-03-16T09:51:42.934Z,3.37
2019-03-16T09:54:12.763Z,22.43
2019-03-16T09:56:42.526Z,6.97
2019-03-16T09:59:12.371Z,8.60
2019-03-16T10:01:45.128Z,21.40
2019-03-16T10:04:15.139Z,9.67
2019-03-16T10:06:51.370Z,12.90
2019-03-16T10:09:23.072Z,7.13
2019-03-16T10:11:56.182Z,10.80
2019-03-16T10:14:26.170Z,8.57
2019-03-16T10:16:59.683Z,13.53
2019-03-16T10:19:29.953Z,7.80
2019-03-16T10:22:00.008Z,5.60
2019-03-16T10:24:30.768Z,7.43
2019-03-16T10:27:01.065Z,8.70
2019-03-16T10:29:31.237Z,5.80
2019-03-16T10:32:03.292Z,9.40
2019-03-16T10:34:35.448Z,7.47
2019-03-16T10:37:08.709Z,3.03
2019-03-16T10:39:38.454Z,7.30
2019-03-16T10:42:08.765Z,6.87
2019-03-16T10:44:39.057Z,5.07
2019-03-16T10:47:09.017Z,31.47
2019-03-16T10:49:38.952Z,10.17
2019-03-16T10:52:10.563Z,25.80
2019-03-16T10:54:42.606Z,5.63
2019-03-16T10:57:12.461Z,4.07
2019-03-16T10:59:42.247Z,5.70
2019-03-16T11:02:12.212Z,5.33
2019-03-16T11:04:42.065Z,3.13
2019-03-16T11:07:18.552Z,21.70
2019-03-16T11:09:50.117Z,4.50
2019-03-16T11:12:24.177Z,6.97
2019-03-16T11:14:55.184Z,5.50
2019-03-16T11:17:25.727Z,18.30
2019-03-16T11:19:56.276Z,4.00
2019-03-16T11:22:27.244Z,9.43
2019-03-16T11:24:58.356Z,4.00
2019-03-16T11:27:28.803Z,5.10
2019-03-16T11:29:58.903Z,16.97
2019-03-16T11:32:29.528Z,6.97
2019-03-16T11:35:00.404Z,14.23
2019-03-16T11:37:31.305Z,10.73
2019-03-16T11:40:02.407Z,6.30
2019-03-16T11:42:33.681Z,4.37
2019-03-16T11:45:05.909Z,11.97
2019-03-16T11:47:36.337Z,13.77
2019-03-16T11:50:10.759Z,20.13
2019-03-16T11:52:41.321Z,9.00
2019-03-16T11:55:12.075Z,5.77
2019-03-16T11:57:43.204Z,6.90
2019-03-16T12:00:14.480Z,5.43
2019-03-16T12:02:45.490Z,7.13
2019-03-16T12:05:16.167Z,4.47
2019-03-16T12:07:46.813Z,9.03
2019-03-16T12:10:18.124Z,5.10
2019-03-16T12:12:50.530Z,5.07
2019-03-16T12:15:26.218Z,4.90
2019-03-16T12:17:57.123Z,5.93
2019-03-16T12:20:28.075Z,3.13
2019-03-16T12:22:58.867Z,4.20
2019-03-16T12:25:29.326Z,4.70
2019-03-16T12:28:00.118Z,6.87
2019-03-16T12:30:31.814Z,13.80
2019-03-16T12:33:02.644Z,5.00
2019-03-16T12:35:33.302Z,8.80
2019-03-16T12:38:03.515Z,13.43
2019-03-16T12:40:34.304Z,6.03
2019-03-16T12:43:05.526Z,3.43
2019-03-16T12:45:36.626Z,10.10
2019-03-16T12:48:06.843Z,10.50
2019-03-16T12:50:37.464Z,5.73
2019-03-16T12:53:08.219Z,6.43
2019-03-16T12:55:39.868Z,4.60
2019-03-16T12:58:11.894Z,8.10
2019-03-16T13:00:43.370Z,3.07
2019-03-16T13:03:13.683Z,10.37
2019-03-16T13:05:44.620Z,4.63
2019-03-16T13:08:15.232Z,3.17
2019-03-16T13:10:45.201Z,6.43
2019-03-16T13:13:15.331Z,7.10
2019-03-16T13:15:46.658Z,6.07
2019-03-16T13:18:17.242Z,4.47
2019-03-16T13:20:48.608Z,3.77
2019-03-16T13:23:19.307Z,9.87
2019-03-16T13:25:49.919Z,10.03
2019-03-16T13:28:20.815Z,11.80
2019-03-16T13:30:52.615Z,10.83
2019-03-16T13:33:22.913Z,22.97
2019-03-16T13:35:53.969Z,10.40
2019-03-16T13:38:24.206Z,19.43
2019-03-16T13:40:54.528Z,18.10
2019-03-16T13:43:24.681Z,12.50
2019-03-16T13:45:55.223Z,17.43
2019-03-16T13:48:25.972Z,26.27
2019-03-16T13:50:57.586Z,22.50
2019-03-16T13:53:27.975Z,13.87
2019-03-16T13:55:58.383Z,13.10
2019-03-16T13:58:28.360Z,10.03
2019-03-16T14:00:58.969Z,15.33
2019-03-16T14:03:29.552Z,10.20
2019-03-16T14:06:00.167Z,14.13
2019-03-16T14:08:31.484Z,11.10
2019-03-16T14:11:02.809Z,7.87
2019-03-16T14:13:34.486Z,11.47
2019-03-16T14:16:05.913Z,8.37
2019-03-16T14:18:36.549Z,10.90
2019-03-16T14:21:21.445Z,9.90
2019-03-16T14:23:50.650Z,13.73
2019-03-16T14:26:22.097Z,9.93
2019-03-16T14:28:54.516Z,9.23
2019-03-16T14:31:25.925Z,9.63
2019-03-16T14:33:56.127Z,17.10
2019-03-16T14:36:27.432Z,8.40
2019-03-16T14:38:58.214Z,10.93
2019-03-16T14:41:28.572Z,6.70
2019-03-16T14:44:01.269Z,14.23
2019-03-16T14:46:35.034Z,14.80
2019-03-16T14:49:06.374Z,5.90
2019-03-16T14:51:37.973Z,5.80
2019-03-16T14:54:09.872Z,9.00
2019-03-16T14:56:39.637Z,8.80
2019-03-16T14:59:12.793Z,6.93
2019-03-16T15:01:42.652Z,14.20
2019-03-16T15:04:12.476Z,12.03
2019-03-16T15:06:42.258Z,9.27
2019-03-16T15:09:12.145Z,17.00
2019-03-16T15:11:42.041Z,14.43
2019-03-16T15:14:21.651Z,17.43
2019-03-16T15:16:47.989Z,5.83
2019-03-16T15:19:17.954Z,11.10
2019-03-16T15:21:47.961Z,7.20
2019-03-16T15:24:17.766Z,12.47
2019-03-16T15:26:47.622Z,10.77
2019-03-16T15:29:17.424Z,11.00
2019-03-16T15:31:47.171Z,11.10
2019-03-16T15:34:20.154Z,16.90
2019-03-16T15:36:49.964Z,16.47
2019-03-16T15:39:20.784Z,9.73
2019-03-16T15:41:50.989Z,13.07
2019-03-16T15:44:21.440Z,19.17
2019-03-16T15:46:51.410Z,10.43
2019-03-16T15:49:21.447Z,13.27
2019-03-16T15:51:51.211Z,9.77
2019-03-16T15:54:21.126Z,11.63
2019-03-16T15:56:51.047Z,9.53
2019-03-16T15:59:24.066Z,8.70
2019-03-16T16:01:56.751Z,7.37
2019-03-16T16:04:26.530Z,9.27
2019-03-16T16:06:56.368Z,6.17
2019-03-16T16:09:26.210Z,18.77
2019-03-16T16:11:56.015Z,11.57
2019-03-16T16:14:25.868Z,12.73
2019-03-16T16:16:59.548Z,17.53
2019-03-16T16:19:29.343Z,12.23
2019-03-16T16:21:59.176Z,13.47
2019-03-16T16:24:28.989Z,12.77
2019-03-16T16:26:58.793Z,13.87
2019-03-16T16:29:30.274Z,24.00
2019-03-16T16:32:00.109Z,18.50
2019-03-16T16:34:29.958Z,19.53
2019-03-16T16:36:59.726Z,14.97
2019-03-16T16:39:29.619Z,18.27
2019-03-16T16:41:59.484Z,9.07
2019-03-16T16:44:32.613Z,8.50
2019-03-16T16:47:07.103Z,65.17
2019-03-16T16:49:33.976Z,20.07
2019-03-16T16:52:05.043Z,10.43
2019-03-16T16:54:40.258Z,5.57
2019-03-16T16:57:10.832Z,8.53
2019-03-16T16:59:41.375Z,7.50
2019-03-16T17:02:15.333Z,15.90
2019-03-16T17:04:46.251Z,15.97
2019-03-16T17:07:16.782Z,18.23
2019-03-16T17:09:47.308Z,14.70
2019-03-16T17:12:17.512Z,12.70
2019-03-16T17:14:47.567Z,12.33
2019-03-16T17:17:18.135Z,7.50
2019-03-16T17:19:48.672Z,10.20
2019-03-16T17:22:18.654Z,22.23
2019-03-16T17:24:49.282Z,16.90
2019-03-16T17:27:19.633Z,15.07
2019-03-16T17:29:49.835Z,15.80
2019-03-16T17:32:20.336Z,14.77
2019-03-16T17:34:50.318Z,10.90
2019-03-16T17:37:20.549Z,10.50
2019-03-16T17:39:52.472Z,9.40
2019-03-16T17:42:29.397Z,11.87
2019-03-16T17:45:08.821Z,13.23
2019-03-16T17:47:40.032Z,12.73
2019-03-16T17:50:14.432Z,18.43
2019-03-16T17:52:45.634Z,20.07
2019-03-16T17:55:18.120Z,25.43
2019-03-16T17:57:49.766Z,21.13
2019-03-16T18:00:20.554Z,25.80
2019-03-16T18:02:52.397Z,36.20
2019-03-16T18:05:22.326Z,66.13
2019-03-16T18:07:52.141Z,107.77
2019-03-16T18:10:26.877Z,76.80
2019-03-16T18:12:58.530Z,70.63
2019-03-16T18:15:28.357Z,79.23
2019-03-16T18:17:58.782Z,57.83
2019-03-16T18:20:28.959Z,77.03
2019-03-16T18:23:01.011Z,67.67
2019-03-16T18:25:30.592Z,83.77
2019-03-16T18:28:00.386Z,88.13
2019-03-16T18:34:01.265Z,102.47
2019-03-16T18:36:36.570Z,76.67
2019-03-16T18:39:07.036Z,54.40
2019-03-16T18:41:38.278Z,101.60
2019-03-16T18:44:17.355Z,59.77
2019-03-16T18:46:44.556Z,50.53
2019-03-16T18:49:15.386Z,90.87
2019-03-16T18:51:45.853Z,51.33
2019-03-16T18:54:15.986Z,37.27
2019-03-16T18:56:46.866Z,24.73
2019-03-16T18:59:18.545Z,19.40
2019-03-16T19:01:49.019Z,23.07
2019-03-16T19:04:18.965Z,19.80
2019-03-16T19:06:49.031Z,18.00
2019-03-16T19:09:19.125Z,13.33
2019-03-16T19:11:49.036Z,14.83
2019-03-16T19:14:18.894Z,16.23
2019-03-16T19:16:48.858Z,16.13
2019-03-16T19:19:18.841Z,17.20
2019-03-16T19:21:49.121Z,17.23
2019-03-16T19:24:19.483Z,19.93
2019-03-16T19:26:49.947Z,19.80
2019-03-16T19:29:20.539Z,16.47
2019-03-16T19:31:50.788Z,21.40
2019-03-16T19:34:21.331Z,15.23
2019-03-16T19:36:51.530Z,15.10
2019-03-16T19:39:24.839Z,14.73
2019-03-16T19:41:55.907Z,13.50
2019-03-16T19:44:30.915Z,14.13
2019-03-16T19:47:04.746Z,10.93
2019-03-16T19:49:37.542Z,12.27
2019-03-16T19:52:09.770Z,10.80
2019-03-16T19:54:45.201Z,13.97
2019-03-16T19:57:17.239Z,14.13
2019-03-16T19:59:50.892Z,30.43
2019-03-16T20:02:22.707Z,19.50
2019-03-16T20:04:56.391Z,18.53
2019-03-16T20:07:27.534Z,14.17
2019-03-16T20:09:59.264Z,11.80
2019-03-16T20:12:32.462Z,11.40
2019-03-16T20:15:08.289Z,11.60
2019-03-16T20:17:44.546Z,16.20
2019-03-16T20:20:19.085Z,14.97
2019-03-16T20:22:52.241Z,12.30
2019-03-16T20:25:25.437Z,11.37
2019-03-16T20:27:56.760Z,11.77
2019-03-16T20:30:30.520Z,10.70
2019-03-16T20:33:04.879Z,10.07
2019-03-16T20:35:38.404Z,10.73
2019-03-16T20:38:14.485Z,10.47
2019-03-16T20:40:50.787Z,13.07
2019-03-16T20:43:20.980Z,16.07
2019-03-16T20:45:59.730Z,46.27
2019-03-16T20:48:31.204Z,31.17
2019-03-16T20:51:02.287Z,16.63
2019-03-16T20:53:33.491Z,15.10
2019-03-16T20:56:05.323Z,14.93
2019-03-16T20:58:36.550Z,15.97
2019-03-16T21:01:06.836Z,13.50
2019-03-16T21:03:37.182Z,14.23
2019-03-16T21:06:07.614Z,12.50
2019-03-16T21:08:39.035Z,10.20
2019-03-16T21:11:12.159Z,11.70
2019-03-16T21:13:43.473Z,9.73
2019-03-16T21:16:14.080Z,10.27
2019-03-16T21:18:44.963Z,12.20
2019-03-16T21:21:18.891Z,11.63
2019-03-16T21:23:50.315Z,11.23
2019-03-16T21:26:21.504Z,10.87
2019-03-16T21:28:52.167Z,15.33
2019-03-16T21:31:22.577Z,18.80
2019-03-16T21:33:53.574Z,16.47
2019-03-16T21:36:27.150Z,14.50
2019-03-16T21:38:57.589Z,18.30
2019-03-16T21:41:28.112Z,15.70
2019-03-16T21:43:58.189Z,13.13
2019-03-16T21:46:30.351Z,14.90
2019-03-16T21:49:00.369Z,19.20
2019-03-16T21:51:30.723Z,24.37
2019-03-16T21:54:00.656Z,24.83
2019-03-16T21:56:30.618Z,26.77
2019-03-16T21:59:00.633Z,30.03
2019-03-16T22:01:32.817Z,31.73
2019-03-16T22:04:03.171Z,33.53
2019-03-16T22:06:33.085Z,30.13
2019-03-16T22:09:03.076Z,25.80
2019-03-16T22:11:33.115Z,24.80
2019-03-16T22:14:03.623Z,22.93
2019-03-16T22:16:33.469Z,30.87
2019-03-16T22:19:03.465Z,28.27
2019-03-16T22:21:33.429Z,22.40
2019-03-16T22:24:04.835Z,28.07
2019-03-16T22:26:37.352Z,32.47
2019-03-16T22:29:08.062Z,33.30
2019-03-16T22:31:37.852Z,32.40
2019-03-16T22:34:07.693Z,36.37
2019-03-16T22:36:38.994Z,24.57
2019-03-16T22:39:09.472Z,23.50
2019-03-16T22:41:42.700Z,25.80
2019-03-16T22:44:14.012Z,19.10
2019-03-16T22:46:45.860Z,18.30
2019-03-16T22:49:16.125Z,15.10
2019-03-16T22:51:46.299Z,14.40
2019-03-16T22:54:19.230Z,13.67
2019-03-16T22:57:03.141Z,14.33
2019-03-16T22:59:34.013Z,12.20
2019-03-16T23:02:04.366Z,13.53
2019-03-16T23:04:34.361Z,14.20
2019-03-16T23:07:04.120Z,14.37
2019-03-16T23:09:34.095Z,13.87
2019-03-16T23:12:03.863Z,14.17
2019-03-16T23:14:33.790Z,13.17
2019-03-16T23:17:03.566Z,15.20
2019-03-16T23:19:33.338Z,15.97
2019-03-16T23:22:03.104Z,15.13
2019-03-16T23:24:32.842Z,13.60
2019-03-16T23:27:02.629Z,14.23
2019-03-16T23:29:32.398Z,19.57
2019-03-16T23:32:02.162Z,18.73
2019-03-16T23:34:31.937Z,15.13
2019-03-16T23:37:01.675Z,19.47
2019-03-16T23:39:31.459Z,17.03
2019-03-16T23:42:01.198Z,15.20
2019-03-16T23:44:33.738Z,16.67
2019-03-16T23:47:02.427Z,16.77
2019-03-16T23:49:32.222Z,16.67
2019-03-16T23:52:01.997Z,14.40
2019-03-16T23:54:31.784Z,22.63
2019-03-16T23:57:01.557Z,12.53
2019-03-16T23:59:31.465Z,17.57
